sensor_id;sensor_type;location;lat;lon;timestamp;P1;durP1;ratioP1;P2;durP2;ratioP2
24761;SDS011;12865;51.934;10.330;2023-12-20T00:00:21;2.40;;;2.30;;
24761;SDS011;12865;51.934;10.330;2023-12-20T00:03:07;2.80;;;2.60;;
24761;SDS011;12865;51.934;10.330;2023-12-20T00:05:52;2.55;;;2.35;;
24761;SDS011;12865;51.934;10.330;2023-12-20T00:08:38;2.60;;;2.40;;
24761;SDS011;12865;51.934;10.330;2023-12-20T00:11:24;2.67;;;2.53;;
24761;SDS011;12865;51.934;10.330;2023-12-20T00:14:10;3.05;;;2.70;;
24761;SDS011;12865;51.934;10.330;2023-12-20T00:16:55;3.60;;;3.25;;
24761;SDS011;12865;51.934;10.330;2023-12-20T00:19:41;3.08;;;2.88;;
24761;SDS011;12865;51.934;10.330;2023-12-20T00:22:27;2.92;;;2.72;;
24761;SDS011;12865;51.934;10.330;2023-12-20T00:25:12;2.28;;;2.17;;
24761;SDS011;12865;51.934;10.330;2023-12-20T00:27:58;2.78;;;2.58;;
24761;SDS011;12865;51.934;10.330;2023-12-20T00:30:44;2.40;;;2.30;;
24761;SDS011;12865;51.934;10.330;2023-12-20T00:33:29;2.20;;;2.10;;
24761;SDS011;12865;51.934;10.330;2023-12-20T00:36:15;1.90;;;1.80;;
24761;SDS011;12865;51.934;10.330;2023-12-20T00:39:01;2.90;;;2.70;;
24761;SDS011;12865;51.934;10.330;2023-12-20T00:41:46;2.45;;;2.30;;
24761;SDS011;12865;51.934;10.330;2023-12-20T00:44:32;2.30;;;2.10;;
24761;SDS011;12865;51.934;10.330;2023-12-20T00:47:17;2.53;;;2.33;;
24761;SDS011;12865;51.934;10.330;2023-12-20T00:50:03;1.85;;;1.75;;
24761;SDS011;12865;51.934;10.330;2023-12-20T00:52:49;1.73;;;1.63;;
24761;SDS011;12865;51.934;10.330;2023-12-20T00:55:35;1.65;;;1.52;;
24761;SDS011;12865;51.934;10.330;2023-12-20T00:58:20;1.70;;;1.60;;
24761;SDS011;12865;51.934;10.330;2023-12-20T01:01:06;1.27;;;1.25;;
24761;SDS011;12865;51.934;10.330;2023-12-20T01:03:52;0.93;;;0.93;;
24761;SDS011;12865;51.934;10.330;2023-12-20T01:06:38;1.35;;;1.10;;
24761;SDS011;12865;51.934;10.330;2023-12-20T01:09:24;0.93;;;0.93;;
24761;SDS011;12865;51.934;10.330;2023-12-20T01:12:11;1.52;;;1.00;;
24761;SDS011;12865;51.934;10.330;2023-12-20T01:14:57;1.15;;;1.00;;
24761;SDS011;12865;51.934;10.330;2023-12-20T01:17:43;1.23;;;1.20;;
24761;SDS011;12865;51.934;10.330;2023-12-20T01:20:29;2.03;;;1.83;;
24761;SDS011;12865;51.934;10.330;2023-12-20T01:23:15;2.53;;;1.85;;
24761;SDS011;12865;51.934;10.330;2023-12-20T01:26:00;1.98;;;1.70;;
24761;SDS011;12865;51.934;10.330;2023-12-20T01:28:47;2.08;;;1.98;;
24761;SDS011;12865;51.934;10.330;2023-12-20T01:31:33;2.10;;;2.00;;
24761;SDS011;12865;51.934;10.330;2023-12-20T01:34:19;2.70;;;2.50;;
24761;SDS011;12865;51.934;10.330;2023-12-20T01:37:04;2.60;;;2.50;;
24761;SDS011;12865;51.934;10.330;2023-12-20T01:39:50;3.30;;;3.00;;
24761;SDS011;12865;51.934;10.330;2023-12-20T01:42:36;3.63;;;3.33;;
24761;SDS011;12865;51.934;10.330;2023-12-20T01:45:21;3.65;;;3.25;;
24761;SDS011;12865;51.934;10.330;2023-12-20T01:48:07;6.35;;;3.85;;
24761;SDS011;12865;51.934;10.330;2023-12-20T01:50:54;4.05;;;3.75;;
24761;SDS011;12865;51.934;10.330;2023-12-20T01:53:41;3.47;;;2.85;;
24761;SDS011;12865;51.934;10.330;2023-12-20T01:56:27;4.93;;;4.07;;
24761;SDS011;12865;51.934;10.330;2023-12-20T01:59:14;4.85;;;4.40;;
24761;SDS011;12865;51.934;10.330;2023-12-20T02:01:59;5.40;;;4.90;;
24761;SDS011;12865;51.934;10.330;2023-12-20T02:04:45;5.07;;;4.57;;
24761;SDS011;12865;51.934;10.330;2023-12-20T02:07:32;4.25;;;3.95;;
24761;SDS011;12865;51.934;10.330;2023-12-20T02:10:21;5.95;;;5.43;;
24761;SDS011;12865;51.934;10.330;2023-12-20T02:13:07;4.93;;;4.53;;
24761;SDS011;12865;51.934;10.330;2023-12-20T02:15:52;5.55;;;5.00;;
24761;SDS011;12865;51.934;10.330;2023-12-20T02:18:39;6.95;;;5.63;;
24761;SDS011;12865;51.934;10.330;2023-12-20T02:21:31;7.32;;;5.88;;
24761;SDS011;12865;51.934;10.330;2023-12-20T02:24:18;6.43;;;5.72;;
24761;SDS011;12865;51.934;10.330;2023-12-20T02:27:03;8.07;;;6.93;;
24761;SDS011;12865;51.934;10.330;2023-12-20T02:29:51;9.07;;;6.50;;
24761;SDS011;12865;51.934;10.330;2023-12-20T02:32:37;7.65;;;5.80;;
24761;SDS011;12865;51.934;10.330;2023-12-20T02:35:22;7.88;;;4.53;;
24761;SDS011;12865;51.934;10.330;2023-12-20T02:38:08;8.77;;;4.18;;
24761;SDS011;12865;51.934;10.330;2023-12-20T02:40:53;5.90;;;4.10;;
24761;SDS011;12865;51.934;10.330;2023-12-20T02:46:07;8.55;;;3.50;;
24761;SDS011;12865;51.934;10.330;2023-12-20T02:48:52;5.72;;;3.72;;
24761;SDS011;12865;51.934;10.330;2023-12-20T02:51:38;7.80;;;3.70;;
24761;SDS011;12865;51.934;10.330;2023-12-20T02:54:24;7.20;;;3.97;;
24761;SDS011;12865;51.934;10.330;2023-12-20T02:57:09;7.18;;;3.53;;
24761;SDS011;12865;51.934;10.330;2023-12-20T02:59:55;10.18;;;3.60;;
24761;SDS011;12865;51.934;10.330;2023-12-20T03:02:40;6.63;;;3.08;;
24761;SDS011;12865;51.934;10.330;2023-12-20T03:05:26;7.68;;;2.92;;
24761;SDS011;12865;51.934;10.330;2023-12-20T03:08:12;4.93;;;2.50;;
24761;SDS011;12865;51.934;10.330;2023-12-20T03:10:59;5.63;;;2.47;;
24761;SDS011;12865;51.934;10.330;2023-12-20T03:13:45;7.85;;;2.75;;
24761;SDS011;12865;51.934;10.330;2023-12-20T03:16:30;6.35;;;2.30;;
24761;SDS011;12865;51.934;10.330;2023-12-20T03:19:18;6.40;;;2.42;;
24761;SDS011;12865;51.934;10.330;2023-12-20T03:22:06;7.22;;;2.88;;
24761;SDS011;12865;51.934;10.330;2023-12-20T03:24:52;4.90;;;2.00;;
24761;SDS011;12865;51.934;10.330;2023-12-20T03:27:37;8.13;;;2.00;;
24761;SDS011;12865;51.934;10.330;2023-12-20T03:30:24;5.38;;;1.80;;
24761;SDS011;12865;51.934;10.330;2023-12-20T03:33:09;3.42;;;1.70;;
24761;SDS011;12865;51.934;10.330;2023-12-20T03:35:55;6.93;;;2.20;;
24761;SDS011;12865;51.934;10.330;2023-12-20T03:38:41;7.07;;;2.08;;
24761;SDS011;12865;51.934;10.330;2023-12-20T03:41:26;6.75;;;2.28;;
24761;SDS011;12865;51.934;10.330;2023-12-20T03:44:12;5.38;;;2.15;;
24761;SDS011;12865;51.934;10.330;2023-12-20T03:46:58;6.10;;;2.40;;
24761;SDS011;12865;51.934;10.330;2023-12-20T03:49:43;5.70;;;2.40;;
24761;SDS011;12865;51.934;10.330;2023-12-20T03:52:29;3.42;;;2.10;;
24761;SDS011;12865;51.934;10.330;2023-12-20T03:55:15;4.63;;;2.60;;
24761;SDS011;12865;51.934;10.330;2023-12-20T03:58:00;4.78;;;2.03;;
24761;SDS011;12865;51.934;10.330;2023-12-20T04:00:46;2.95;;;1.85;;
24761;SDS011;12865;51.934;10.330;2023-12-20T04:03:32;7.78;;;2.55;;
24761;SDS011;12865;51.934;10.330;2023-12-20T04:06:17;7.03;;;2.20;;
24761;SDS011;12865;51.934;10.330;2023-12-20T04:09:03;6.22;;;1.90;;
24761;SDS011;12865;51.934;10.330;2023-12-20T04:11:49;7.65;;;2.03;;
24761;SDS011;12865;51.934;10.330;2023-12-20T04:14:35;9.93;;;2.22;;
24761;SDS011;12865;51.934;10.330;2023-12-20T04:17:20;5.55;;;1.77;;
24761;SDS011;12865;51.934;10.330;2023-12-20T04:20:08;5.03;;;1.85;;
24761;SDS011;12865;51.934;10.330;2023-12-20T04:22:54;6.53;;;1.65;;
24761;SDS011;12865;51.934;10.330;2023-12-20T04:25:39;3.88;;;1.70;;
24761;SDS011;12865;51.934;10.330;2023-12-20T04:28:25;9.80;;;1.80;;
24761;SDS011;12865;51.934;10.330;2023-12-20T04:31:11;7.93;;;1.60;;
24761;SDS011;12865;51.934;10.330;2023-12-20T04:33:56;7.50;;;1.55;;
24761;SDS011;12865;51.934;10.330;2023-12-20T04:36:42;7.30;;;2.03;;
24761;SDS011;12865;51.934;10.330;2023-12-20T04:39:28;7.60;;;1.85;;
24761;SDS011;12865;51.934;10.330;2023-12-20T04:42:13;8.10;;;2.00;;
24761;SDS011;12865;51.934;10.330;2023-12-20T04:44:59;9.55;;;2.38;;
24761;SDS011;12865;51.934;10.330;2023-12-20T04:47:45;5.85;;;2.85;;
24761;SDS011;12865;51.934;10.330;2023-12-20T04:50:32;4.97;;;1.80;;
24761;SDS011;12865;51.934;10.330;2023-12-20T04:53:18;3.63;;;1.85;;
24761;SDS011;12865;51.934;10.330;2023-12-20T04:56:04;6.90;;;1.67;;
24761;SDS011;12865;51.934;10.330;2023-12-20T04:58:50;7.30;;;1.80;;
24761;SDS011;12865;51.934;10.330;2023-12-20T05:01:35;7.47;;;1.67;;
24761;SDS011;12865;51.934;10.330;2023-12-20T05:04:21;3.28;;;1.50;;
24761;SDS011;12865;51.934;10.330;2023-12-20T05:07:07;6.43;;;2.20;;
24761;SDS011;12865;51.934;10.330;2023-12-20T05:09:52;7.97;;;2.05;;
24761;SDS011;12865;51.934;10.330;2023-12-20T05:12:38;5.22;;;1.67;;
24761;SDS011;12865;51.934;10.330;2023-12-20T05:15:24;10.50;;;1.92;;
24761;SDS011;12865;51.934;10.330;2023-12-20T05:18:10;6.90;;;1.88;;
24761;SDS011;12865;51.934;10.330;2023-12-20T05:20:55;4.05;;;1.63;;
24761;SDS011;12865;51.934;10.330;2023-12-20T05:23:41;4.88;;;1.52;;
24761;SDS011;12865;51.934;10.330;2023-12-20T05:26:27;4.72;;;1.70;;
24761;SDS011;12865;51.934;10.330;2023-12-20T05:29:12;5.55;;;1.92;;
24761;SDS011;12865;51.934;10.330;2023-12-20T05:31:58;9.07;;;1.98;;
24761;SDS011;12865;51.934;10.330;2023-12-20T05:34:44;8.60;;;2.38;;
24761;SDS011;12865;51.934;10.330;2023-12-20T05:37:30;6.30;;;2.40;;
24761;SDS011;12865;51.934;10.330;2023-12-20T05:40:15;6.70;;;2.10;;
24761;SDS011;12865;51.934;10.330;2023-12-20T05:43:01;7.78;;;1.90;;
24761;SDS011;12865;51.934;10.330;2023-12-20T05:45:47;7.65;;;2.03;;
24761;SDS011;12865;51.934;10.330;2023-12-20T05:48:33;7.13;;;2.42;;
24761;SDS011;12865;51.934;10.330;2023-12-20T05:51:19;5.88;;;2.38;;
24761;SDS011;12865;51.934;10.330;2023-12-20T05:54:04;6.65;;;1.80;;
24761;SDS011;12865;51.934;10.330;2023-12-20T05:56:50;5.55;;;2.20;;
24761;SDS011;12865;51.934;10.330;2023-12-20T05:59:36;7.63;;;1.98;;
24761;SDS011;12865;51.934;10.330;2023-12-20T06:02:21;5.38;;;1.95;;
24761;SDS011;12865;51.934;10.330;2023-12-20T06:05:07;6.60;;;2.45;;
24761;SDS011;12865;51.934;10.330;2023-12-20T06:07:53;7.38;;;2.58;;
24761;SDS011;12865;51.934;10.330;2023-12-20T06:10:40;8.60;;;3.00;;
24761;SDS011;12865;51.934;10.330;2023-12-20T06:13:25;15.43;;;3.00;;
24761;SDS011;12865;51.934;10.330;2023-12-20T06:16:11;12.10;;;2.90;;
24761;SDS011;12865;51.934;10.330;2023-12-20T06:18:57;10.88;;;3.00;;
24761;SDS011;12865;51.934;10.330;2023-12-20T06:21:42;11.48;;;3.00;;
24761;SDS011;12865;51.934;10.330;2023-12-20T06:24:28;10.20;;;2.80;;
24761;SDS011;12865;51.934;10.330;2023-12-20T06:27:14;6.90;;;2.60;;
24761;SDS011;12865;51.934;10.330;2023-12-20T06:29:59;8.32;;;3.00;;
24761;SDS011;12865;51.934;10.330;2023-12-20T06:32:45;11.52;;;3.15;;
24761;SDS011;12865;51.934;10.330;2023-12-20T06:35:32;8.20;;;2.75;;
24761;SDS011;12865;51.934;10.330;2023-12-20T06:38:18;11.18;;;3.30;;
24761;SDS011;12865;51.934;10.330;2023-12-20T06:41:04;13.82;;;3.85;;
24761;SDS011;12865;51.934;10.330;2023-12-20T06:43:51;11.15;;;3.20;;
24761;SDS011;12865;51.934;10.330;2023-12-20T06:46:38;11.05;;;3.25;;
24761;SDS011;12865;51.934;10.330;2023-12-20T06:49:24;11.77;;;3.42;;
24761;SDS011;12865;51.934;10.330;2023-12-20T06:52:09;11.57;;;4.30;;
24761;SDS011;12865;51.934;10.330;2023-12-20T06:54:55;12.90;;;4.20;;
24761;SDS011;12865;51.934;10.330;2023-12-20T06:57:41;10.02;;;3.38;;
24761;SDS011;12865;51.934;10.330;2023-12-20T07:00:26;12.55;;;4.18;;
24761;SDS011;12865;51.934;10.330;2023-12-20T07:03:12;16.70;;;4.60;;
24761;SDS011;12865;51.934;10.330;2023-12-20T07:05:58;15.02;;;4.53;;
24761;SDS011;12865;51.934;10.330;2023-12-20T07:08:43;12.18;;;3.80;;
24761;SDS011;12865;51.934;10.330;2023-12-20T07:11:29;9.40;;;3.53;;
24761;SDS011;12865;51.934;10.330;2023-12-20T07:14:15;13.90;;;3.90;;
24761;SDS011;12865;51.934;10.330;2023-12-20T07:17:00;17.13;;;4.25;;
24761;SDS011;12865;51.934;10.330;2023-12-20T07:19:46;10.07;;;3.83;;
24761;SDS011;12865;51.934;10.330;2023-12-20T07:22:33;13.90;;;3.60;;
24761;SDS011;12865;51.934;10.330;2023-12-20T07:25:19;13.52;;;4.03;;
24761;SDS011;12865;51.934;10.330;2023-12-20T07:28:05;13.25;;;3.88;;
24761;SDS011;12865;51.934;10.330;2023-12-20T07:30:51;9.73;;;3.72;;
24761;SDS011;12865;51.934;10.330;2023-12-20T07:33:37;16.50;;;4.20;;
24761;SDS011;12865;51.934;10.330;2023-12-20T07:36:22;11.48;;;4.38;;
24761;SDS011;12865;51.934;10.330;2023-12-20T07:39:08;10.98;;;3.72;;
24761;SDS011;12865;51.934;10.330;2023-12-20T07:41:54;15.82;;;4.45;;
24761;SDS011;12865;51.934;10.330;2023-12-20T07:44:39;8.48;;;4.57;;
24761;SDS011;12865;51.934;10.330;2023-12-20T07:47:25;10.93;;;4.70;;
24761;SDS011;12865;51.934;10.330;2023-12-20T07:50:11;12.48;;;4.40;;
24761;SDS011;12865;51.934;10.330;2023-12-20T07:52:56;13.25;;;4.55;;
24761;SDS011;12865;51.934;10.330;2023-12-20T07:55:44;9.75;;;4.25;;
24761;SDS011;12865;51.934;10.330;2023-12-20T07:58:30;9.57;;;3.65;;
24761;SDS011;12865;51.934;10.330;2023-12-20T08:01:16;19.48;;;4.47;;
24761;SDS011;12865;51.934;10.330;2023-12-20T08:04:03;13.13;;;3.72;;
24761;SDS011;12865;51.934;10.330;2023-12-20T08:06:50;13.88;;;4.55;;
24761;SDS011;12865;51.934;10.330;2023-12-20T08:09:36;13.50;;;3.40;;
24761;SDS011;12865;51.934;10.330;2023-12-20T08:12:22;13.88;;;4.00;;
24761;SDS011;12865;51.934;10.330;2023-12-20T08:15:08;13.43;;;3.78;;
24761;SDS011;12865;51.934;10.330;2023-12-20T08:17:53;18.75;;;4.30;;
24761;SDS011;12865;51.934;10.330;2023-12-20T08:20:39;10.70;;;4.00;;
24761;SDS011;12865;51.934;10.330;2023-12-20T08:23:25;18.30;;;4.40;;
24761;SDS011;12865;51.934;10.330;2023-12-20T08:26:10;14.85;;;4.15;;
24761;SDS011;12865;51.934;10.330;2023-12-20T08:28:56;10.13;;;3.95;;
24761;SDS011;12865;51.934;10.330;2023-12-20T08:31:42;13.05;;;3.95;;
24761;SDS011;12865;51.934;10.330;2023-12-20T08:34:27;15.07;;;5.00;;
24761;SDS011;12865;51.934;10.330;2023-12-20T08:37:13;17.17;;;4.47;;
24761;SDS011;12865;51.934;10.330;2023-12-20T08:39:59;11.40;;;4.22;;
24761;SDS011;12865;51.934;10.330;2023-12-20T08:42:44;17.80;;;4.80;;
24761;SDS011;12865;51.934;10.330;2023-12-20T08:45:30;13.48;;;4.35;;
24761;SDS011;12865;51.934;10.330;2023-12-20T08:48:16;14.32;;;4.93;;
24761;SDS011;12865;51.934;10.330;2023-12-20T08:51:01;13.30;;;4.22;;
24761;SDS011;12865;51.934;10.330;2023-12-20T08:53:47;13.70;;;4.93;;
24761;SDS011;12865;51.934;10.330;2023-12-20T08:56:33;14.07;;;7.07;;
24761;SDS011;12865;51.934;10.330;2023-12-20T08:59:19;15.35;;;6.13;;
24761;SDS011;12865;51.934;10.330;2023-12-20T09:02:05;14.80;;;5.78;;
24761;SDS011;12865;51.934;10.330;2023-12-20T09:04:50;13.70;;;5.03;;
24761;SDS011;12865;51.934;10.330;2023-12-20T09:07:36;15.57;;;5.05;;
24761;SDS011;12865;51.934;10.330;2023-12-20T09:10:22;14.55;;;5.95;;
24761;SDS011;12865;51.934;10.330;2023-12-20T09:13:07;10.15;;;4.40;;
24761;SDS011;12865;51.934;10.330;2023-12-20T09:15:56;15.43;;;5.30;;
24761;SDS011;12865;51.934;10.330;2023-12-20T09:18:42;12.30;;;4.60;;
24761;SDS011;12865;51.934;10.330;2023-12-20T09:21:28;14.75;;;5.03;;
24761;SDS011;12865;51.934;10.330;2023-12-20T09:24:13;12.65;;;4.70;;
24761;SDS011;12865;51.934;10.330;2023-12-20T09:26:59;15.90;;;4.90;;
24761;SDS011;12865;51.934;10.330;2023-12-20T09:29:45;12.55;;;4.43;;
24761;SDS011;12865;51.934;10.330;2023-12-20T09:32:31;11.63;;;4.53;;
24761;SDS011;12865;51.934;10.330;2023-12-20T09:35:17;10.57;;;4.93;;
24761;SDS011;12865;51.934;10.330;2023-12-20T09:38:03;14.80;;;5.57;;
24761;SDS011;12865;51.934;10.330;2023-12-20T09:40:59;12.85;;;5.57;;
24761;SDS011;12865;51.934;10.330;2023-12-20T09:43:47;14.80;;;4.88;;
24761;SDS011;12865;51.934;10.330;2023-12-20T09:46:34;11.52;;;4.60;;
24761;SDS011;12865;51.934;10.330;2023-12-20T09:49:24;11.23;;;4.97;;
24761;SDS011;12865;51.934;10.330;2023-12-20T09:52:13;9.95;;;4.20;;
24761;SDS011;12865;51.934;10.330;2023-12-20T09:54:59;14.23;;;4.90;;
24761;SDS011;12865;51.934;10.330;2023-12-20T09:57:47;13.20;;;5.35;;
24761;SDS011;12865;51.934;10.330;2023-12-20T10:00:34;13.15;;;5.00;;
24761;SDS011;12865;51.934;10.330;2023-12-20T10:03:24;8.88;;;4.43;;
24761;SDS011;12865;51.934;10.330;2023-12-20T10:06:11;10.15;;;4.75;;
24761;SDS011;12865;51.934;10.330;2023-12-20T10:08:57;11.60;;;4.65;;
24761;SDS011;12865;51.934;10.330;2023-12-20T10:11:44;16.08;;;5.38;;
24761;SDS011;12865;51.934;10.330;2023-12-20T10:14:30;9.88;;;4.63;;
24761;SDS011;12865;51.934;10.330;2023-12-20T10:17:19;14.02;;;4.65;;
24761;SDS011;12865;51.934;10.330;2023-12-20T10:20:07;9.65;;;4.10;;
24761;SDS011;12865;51.934;10.330;2023-12-20T10:22:55;11.80;;;4.30;;
24761;SDS011;12865;51.934;10.330;2023-12-20T10:25:41;13.63;;;5.28;;
24761;SDS011;12865;51.934;10.330;2023-12-20T10:28:28;12.18;;;4.55;;
24761;SDS011;12865;51.934;10.330;2023-12-20T10:31:29;12.68;;;4.25;;
24761;SDS011;12865;51.934;10.330;2023-12-20T10:34:16;9.93;;;4.50;;
24761;SDS011;12865;51.934;10.330;2023-12-20T10:37:02;12.70;;;4.68;;
24761;SDS011;12865;51.934;10.330;2023-12-20T10:39:52;11.43;;;4.40;;
24761;SDS011;12865;51.934;10.330;2023-12-20T10:42:42;12.45;;;4.75;;
24761;SDS011;12865;51.934;10.330;2023-12-20T10:45:28;7.93;;;4.25;;
24761;SDS011;12865;51.934;10.330;2023-12-20T10:48:13;11.13;;;4.88;;
24761;SDS011;12865;51.934;10.330;2023-12-20T10:51:01;16.60;;;4.90;;
24761;SDS011;12865;51.934;10.330;2023-12-20T10:53:53;13.73;;;4.37;;
24761;SDS011;12865;51.934;10.330;2023-12-20T10:56:40;13.73;;;4.30;;
24761;SDS011;12865;51.934;10.330;2023-12-20T10:59:25;7.05;;;4.57;;
24761;SDS011;12865;51.934;10.330;2023-12-20T11:02:14;9.57;;;4.45;;
24761;SDS011;12865;51.934;10.330;2023-12-20T11:05:12;13.57;;;4.50;;
24761;SDS011;12865;51.934;10.330;2023-12-20T11:08:17;11.35;;;4.70;;
24761;SDS011;12865;51.934;10.330;2023-12-20T11:11:30;10.45;;;4.60;;
24761;SDS011;12865;51.934;10.330;2023-12-20T11:14:25;9.73;;;4.65;;
24761;SDS011;12865;51.934;10.330;2023-12-20T11:17:17;12.73;;;4.60;;
24761;SDS011;12865;51.934;10.330;2023-12-20T11:20:04;9.93;;;4.10;;
24761;SDS011;12865;51.934;10.330;2023-12-20T11:22:54;10.48;;;4.68;;
24761;SDS011;12865;51.934;10.330;2023-12-20T11:25:46;9.43;;;4.45;;
24761;SDS011;12865;51.934;10.330;2023-12-20T11:28:34;10.10;;;4.38;;
24761;SDS011;12865;51.934;10.330;2023-12-20T11:31:19;8.55;;;4.43;;
24761;SDS011;12865;51.934;10.330;2023-12-20T11:34:14;9.55;;;4.70;;
24761;SDS011;12865;51.934;10.330;2023-12-20T11:37:02;11.30;;;4.47;;
24761;SDS011;12865;51.934;10.330;2023-12-20T11:40:07;12.40;;;5.68;;
24761;SDS011;12865;51.934;10.330;2023-12-20T11:42:54;10.20;;;5.35;;
24761;SDS011;12865;51.934;10.330;2023-12-20T11:45:48;11.63;;;5.55;;
24761;SDS011;12865;51.934;10.330;2023-12-20T11:48:36;12.25;;;5.40;;
24761;SDS011;12865;51.934;10.330;2023-12-20T11:51:23;13.18;;;4.97;;
24761;SDS011;12865;51.934;10.330;2023-12-20T11:54:09;14.05;;;5.88;;
24761;SDS011;12865;51.934;10.330;2023-12-20T11:56:56;9.93;;;5.18;;
24761;SDS011;12865;51.934;10.330;2023-12-20T11:59:42;9.23;;;5.13;;
24761;SDS011;12865;51.934;10.330;2023-12-20T12:02:28;10.32;;;5.25;;
24761;SDS011;12865;51.934;10.330;2023-12-20T12:05:14;9.80;;;5.20;;
24761;SDS011;12865;51.934;10.330;2023-12-20T12:07:59;8.20;;;5.43;;
24761;SDS011;12865;51.934;10.330;2023-12-20T12:10:45;14.07;;;6.53;;
24761;SDS011;12865;51.934;10.330;2023-12-20T12:13:31;9.07;;;4.95;;
24761;SDS011;12865;51.934;10.330;2023-12-20T12:16:17;10.70;;;5.35;;
24761;SDS011;12865;51.934;10.330;2023-12-20T12:19:06;9.50;;;5.50;;
24761;SDS011;12865;51.934;10.330;2023-12-20T12:22:11;12.00;;;5.95;;
24761;SDS011;12865;51.934;10.330;2023-12-20T12:25:11;10.25;;;5.95;;
24761;SDS011;12865;51.934;10.330;2023-12-20T12:27:58;13.00;;;7.10;;
24761;SDS011;12865;51.934;10.330;2023-12-20T12:30:57;14.75;;;6.90;;
24761;SDS011;12865;51.934;10.330;2023-12-20T12:33:44;14.23;;;6.72;;
24761;SDS011;12865;51.934;10.330;2023-12-20T12:36:29;12.60;;;6.38;;
24761;SDS011;12865;51.934;10.330;2023-12-20T12:39:17;11.07;;;6.78;;
24761;SDS011;12865;51.934;10.330;2023-12-20T12:42:03;12.30;;;5.95;;
24761;SDS011;12865;51.934;10.330;2023-12-20T12:44:49;13.45;;;6.90;;
24761;SDS011;12865;51.934;10.330;2023-12-20T12:47:35;13.70;;;6.85;;
24761;SDS011;12865;51.934;10.330;2023-12-20T12:50:21;18.92;;;9.05;;
24761;SDS011;12865;51.934;10.330;2023-12-20T12:53:06;10.95;;;5.88;;
24761;SDS011;12865;51.934;10.330;2023-12-20T12:55:52;12.27;;;6.35;;
24761;SDS011;12865;51.934;10.330;2023-12-20T12:58:39;10.82;;;5.90;;
24761;SDS011;12865;51.934;10.330;2023-12-20T13:01:25;13.05;;;7.28;;
24761;SDS011;12865;51.934;10.330;2023-12-20T13:04:11;11.70;;;5.90;;
24761;SDS011;12865;51.934;10.330;2023-12-20T13:06:57;10.23;;;6.55;;
24761;SDS011;12865;51.934;10.330;2023-12-20T13:09:42;8.93;;;4.90;;
24761;SDS011;12865;51.934;10.330;2023-12-20T13:12:28;10.70;;;5.35;;
24761;SDS011;12865;51.934;10.330;2023-12-20T13:15:14;13.48;;;5.55;;
24761;SDS011;12865;51.934;10.330;2023-12-20T13:18:00;8.90;;;5.40;;
24761;SDS011;12865;51.934;10.330;2023-12-20T13:20:46;9.25;;;4.90;;
24761;SDS011;12865;51.934;10.330;2023-12-20T13:23:32;7.85;;;4.68;;
24761;SDS011;12865;51.934;10.330;2023-12-20T13:26:17;3.95;;;2.33;;
24761;SDS011;12865;51.934;10.330;2023-12-20T13:29:03;2.50;;;1.60;;
24761;SDS011;12865;51.934;10.330;2023-12-20T13:31:49;1.90;;;1.63;;
24761;SDS011;12865;51.934;10.330;2023-12-20T13:34:35;4.32;;;1.40;;
24761;SDS011;12865;51.934;10.330;2023-12-20T13:37:20;1.90;;;1.20;;
24761;SDS011;12865;51.934;10.330;2023-12-20T13:40:07;1.85;;;1.15;;
24761;SDS011;12865;51.934;10.330;2023-12-20T13:42:53;2.83;;;1.05;;
24761;SDS011;12865;51.934;10.330;2023-12-20T13:45:40;1.90;;;1.25;;
24761;SDS011;12865;51.934;10.330;2023-12-20T13:48:25;1.75;;;0.80;;
24761;SDS011;12865;51.934;10.330;2023-12-20T13:51:11;1.98;;;1.20;;
24761;SDS011;12865;51.934;10.330;2023-12-20T13:53:57;2.05;;;1.63;;
24761;SDS011;12865;51.934;10.330;2023-12-20T13:56:43;2.22;;;1.90;;
24761;SDS011;12865;51.934;10.330;2023-12-20T13:59:29;2.90;;;1.35;;
24761;SDS011;12865;51.934;10.330;2023-12-20T14:02:14;3.33;;;1.60;;
24761;SDS011;12865;51.934;10.330;2023-12-20T14:05:01;1.75;;;1.65;;
24761;SDS011;12865;51.934;10.330;2023-12-20T14:07:47;1.40;;;1.30;;
24761;SDS011;12865;51.934;10.330;2023-12-20T14:10:33;3.63;;;2.25;;
24761;SDS011;12865;51.934;10.330;2023-12-20T14:13:18;4.68;;;1.92;;
24761;SDS011;12865;51.934;10.330;2023-12-20T14:16:04;2.40;;;1.50;;
24761;SDS011;12865;51.934;10.330;2023-12-20T14:18:50;3.65;;;2.72;;
24761;SDS011;12865;51.934;10.330;2023-12-20T14:21:37;3.55;;;3.25;;
24761;SDS011;12865;51.934;10.330;2023-12-20T14:24:22;5.38;;;2.35;;
24761;SDS011;12865;51.934;10.330;2023-12-20T14:27:08;5.93;;;2.17;;
24761;SDS011;12865;51.934;10.330;2023-12-20T14:29:55;5.25;;;2.20;;
24761;SDS011;12865;51.934;10.330;2023-12-20T14:32:41;5.10;;;2.30;;
24761;SDS011;12865;51.934;10.330;2023-12-20T14:35:27;8.00;;;3.20;;
24761;SDS011;12865;51.934;10.330;2023-12-20T14:38:12;7.00;;;2.78;;
24761;SDS011;12865;51.934;10.330;2023-12-20T14:41:01;6.53;;;3.17;;
24761;SDS011;12865;51.934;10.330;2023-12-20T14:43:49;11.25;;;3.28;;
24761;SDS011;12865;51.934;10.330;2023-12-20T14:46:35;6.65;;;2.72;;
24761;SDS011;12865;51.934;10.330;2023-12-20T14:49:20;5.22;;;2.22;;
24761;SDS011;12865;51.934;10.330;2023-12-20T14:52:06;6.40;;;3.28;;
24761;SDS011;12865;51.934;10.330;2023-12-20T14:54:52;4.80;;;1.95;;
24761;SDS011;12865;51.934;10.330;2023-12-20T14:57:37;5.28;;;1.70;;
24761;SDS011;12865;51.934;10.330;2023-12-20T15:00:24;4.15;;;1.77;;
24761;SDS011;12865;51.934;10.330;2023-12-20T15:03:10;3.05;;;1.35;;
24761;SDS011;12865;51.934;10.330;2023-12-20T15:05:56;6.80;;;1.83;;
24761;SDS011;12865;51.934;10.330;2023-12-20T15:08:43;5.32;;;1.65;;
24761;SDS011;12865;51.934;10.330;2023-12-20T15:11:29;7.47;;;1.75;;
24761;SDS011;12865;51.934;10.330;2023-12-20T15:14:15;4.80;;;1.50;;
24761;SDS011;12865;51.934;10.330;2023-12-20T15:19:53;3.35;;;1.23;;
24761;SDS011;12865;51.934;10.330;2023-12-20T15:22:38;5.60;;;1.48;;
24761;SDS011;12865;51.934;10.330;2023-12-20T15:25:26;6.40;;;1.73;;
24761;SDS011;12865;51.934;10.330;2023-12-20T15:28:12;3.35;;;1.63;;
24761;SDS011;12865;51.934;10.330;2023-12-20T15:30:57;6.00;;;2.13;;
24761;SDS011;12865;51.934;10.330;2023-12-20T15:33:43;4.60;;;1.35;;
24761;SDS011;12865;51.934;10.330;2023-12-20T15:36:28;10.20;;;2.00;;
24761;SDS011;12865;51.934;10.330;2023-12-20T15:39:14;5.57;;;2.00;;
24761;SDS011;12865;51.934;10.330;2023-12-20T15:42:00;4.97;;;1.63;;
24761;SDS011;12865;51.934;10.330;2023-12-20T15:44:45;3.45;;;1.40;;
24761;SDS011;12865;51.934;10.330;2023-12-20T15:47:31;6.57;;;1.55;;
24761;SDS011;12865;51.934;10.330;2023-12-20T15:50:17;6.35;;;1.48;;
24761;SDS011;12865;51.934;10.330;2023-12-20T15:53:03;5.50;;;1.60;;
24761;SDS011;12865;51.934;10.330;2023-12-20T15:55:49;7.75;;;2.00;;
24761;SDS011;12865;51.934;10.330;2023-12-20T15:58:35;6.50;;;1.45;;
24761;SDS011;12865;51.934;10.330;2023-12-20T16:01:20;4.53;;;1.45;;
24761;SDS011;12865;51.934;10.330;2023-12-20T16:04:06;4.07;;;1.20;;
24761;SDS011;12865;51.934;10.330;2023-12-20T16:06:52;3.03;;;1.30;;
24761;SDS011;12865;51.934;10.330;2023-12-20T16:09:37;8.88;;;1.75;;
24761;SDS011;12865;51.934;10.330;2023-12-20T16:12:23;2.78;;;1.20;;
24761;SDS011;12865;51.934;10.330;2023-12-20T16:15:09;5.90;;;1.40;;
24761;SDS011;12865;51.934;10.330;2023-12-20T16:17:55;4.82;;;1.40;;
24761;SDS011;12865;51.934;10.330;2023-12-20T16:20:40;5.63;;;1.35;;
24761;SDS011;12865;51.934;10.330;2023-12-20T16:23:26;6.90;;;1.75;;
24761;SDS011;12865;51.934;10.330;2023-12-20T16:26:12;3.65;;;1.20;;
24761;SDS011;12865;51.934;10.330;2023-12-20T16:28:58;4.38;;;1.50;;